createdAt,value
2023-05-18T00:00:25.836Z,6.20
2023-05-18T00:02:54.024Z,6.10
2023-05-18T00:05:22.915Z,6.10
2023-05-18T00:07:51.123Z,6.10
2023-05-18T00:10:19.423Z,6.00
2023-05-18T00:12:47.630Z,6.00
2023-05-18T00:15:17.230Z,5.90
2023-05-18T00:17:45.663Z,5.80
2023-05-18T00:20:13.906Z,5.80
2023-05-18T00:22:42.871Z,5.70
2023-05-18T00:25:11.168Z,5.70
2023-05-18T00:27:39.396Z,5.60
2023-05-18T00:30:09.450Z,5.60
2023-05-18T00:32:39.137Z,5.50
2023-05-18T00:35:08.401Z,5.50
2023-05-18T00:37:37.322Z,5.40
2023-05-18T00:40:07.550Z,5.40
2023-05-18T00:42:35.888Z,5.30
2023-05-18T00:45:04.460Z,5.30
2023-05-18T00:47:32.631Z,5.20
2023-05-18T00:50:02.464Z,5.20
2023-05-18T00:52:32.805Z,5.10
2023-05-18T00:55:01.474Z,5.10
2023-05-18T00:57:29.810Z,5.10
2023-05-18T00:59:58.949Z,5.00
2023-05-18T01:02:30.585Z,4.90
2023-05-18T01:05:00.556Z,4.90
2023-05-18T01:07:33.452Z,4.90
2023-05-18T01:10:01.768Z,4.80
2023-05-18T01:12:38.499Z,4.80
2023-05-18T01:15:14.367Z,4.80
2023-05-18T01:18:05.361Z,4.70
2023-05-18T01:20:45.793Z,4.70
2023-05-18T01:23:52.337Z,4.60
2023-05-18T01:26:29.962Z,4.60
2023-05-18T01:29:03.714Z,4.60
2023-05-18T01:31:32.534Z,4.50
2023-05-18T01:34:00.857Z,4.50
2023-05-18T01:36:29.179Z,4.50
2023-05-18T01:39:01.570Z,4.50
2023-05-18T01:41:36.360Z,4.50
2023-05-18T01:44:15.114Z,4.40
2023-05-18T01:46:55.053Z,4.40
2023-05-18T01:49:37.040Z,4.40
2023-05-18T01:52:10.935Z,4.40
2023-05-18T01:54:46.766Z,4.30
2023-05-18T01:57:19.668Z,4.30
2023-05-18T01:59:49.052Z,4.30
2023-05-18T02:02:17.820Z,4.20
2023-05-18T02:04:46.145Z,4.20
2023-05-18T02:07:14.336Z,4.20
2023-05-18T02:09:44.310Z,4.10
2023-05-18T02:12:12.841Z,4.10
2023-05-18T02:14:42.478Z,4.10
2023-05-18T02:17:11.630Z,4.00
2023-05-18T02:19:39.855Z,4.00
2023-05-18T02:22:08.699Z,3.90
2023-05-18T02:24:37.529Z,3.90
2023-05-18T02:27:07.208Z,3.90
2023-05-18T02:29:35.561Z,3.80
2023-05-18T02:32:05.833Z,3.80
2023-05-18T02:34:35.721Z,3.80
2023-05-18T02:37:04.250Z,3.70
2023-05-18T02:39:33.904Z,3.70
2023-05-18T02:42:02.215Z,3.70
2023-05-18T02:44:30.465Z,3.70
2023-05-18T02:46:58.645Z,3.60
2023-05-18T02:49:28.957Z,3.60
2023-05-18T02:51:57.200Z,3.60
2023-05-18T02:54:25.511Z,3.50
2023-05-18T02:56:56.848Z,3.50
2023-05-18T02:59:37.652Z,3.50
2023-05-18T03:02:06.759Z,3.50
2023-05-18T03:04:37.797Z,3.40
2023-05-18T03:07:07.314Z,3.40
2023-05-18T03:09:36.082Z,3.30
2023-05-18T03:12:05.519Z,3.30
2023-05-18T03:14:33.773Z,3.30
2023-05-18T03:17:06.055Z,3.20
2023-05-18T03:19:36.340Z,3.20
2023-05-18T03:22:05.897Z,3.20
2023-05-18T03:24:40.429Z,3.20
2023-05-18T03:27:16.411Z,3.10
2023-05-18T03:29:45.658Z,3.10
2023-05-18T03:32:14.967Z,3.10
2023-05-18T03:34:44.680Z,3.10
2023-05-18T03:37:13.265Z,3.10
2023-05-18T03:39:41.645Z,3.10
2023-05-18T03:42:10.716Z,3.00
2023-05-18T03:44:39.136Z,3.00
2023-05-18T03:47:08.395Z,3.00
2023-05-18T03:49:36.723Z,3.00
2023-05-18T03:52:07.593Z,3.00
2023-05-18T03:54:36.330Z,3.10
2023-05-18T03:57:04.747Z,3.10
2023-05-18T03:59:32.956Z,3.10
2023-05-18T04:02:02.109Z,3.10
2023-05-18T04:04:31.071Z,3.10
2023-05-18T04:07:01.950Z,3.10
2023-05-18T04:09:31.573Z,3.10
2023-05-18T04:11:59.856Z,3.10
2023-05-18T04:14:28.249Z,3.20
2023-05-18T04:16:58.229Z,3.20
2023-05-18T04:19:26.494Z,3.20
2023-05-18T04:21:54.673Z,3.30
2023-05-18T04:24:23.022Z,3.30
2023-05-18T04:26:52.632Z,3.40
2023-05-18T04:29:21.273Z,3.40
2023-05-18T04:31:49.606Z,3.40
2023-05-18T04:34:19.111Z,3.50
2023-05-18T04:36:47.873Z,3.50
2023-05-18T04:39:16.156Z,3.60
2023-05-18T04:41:44.361Z,3.60
2023-05-18T04:44:15.732Z,3.70
2023-05-18T04:46:47.175Z,3.70
2023-05-18T04:49:22.010Z,3.80
2023-05-18T04:51:55.708Z,3.90
2023-05-18T04:54:24.538Z,4.00
2023-05-18T04:56:53.630Z,4.10
2023-05-18T04:59:26.263Z,4.10
2023-05-18T05:01:56.849Z,4.30
2023-05-18T05:04:26.296Z,4.40
2023-05-18T05:06:54.656Z,4.50
2023-05-18T05:09:22.888Z,4.60
2023-05-18T05:11:51.315Z,4.70
2023-05-18T05:14:19.516Z,4.80
2023-05-18T05:16:49.096Z,4.90
2023-05-18T05:19:17.375Z,5.00
2023-05-18T05:21:45.836Z,5.10
2023-05-18T05:24:14.023Z,5.20
2023-05-18T05:26:42.423Z,5.40
2023-05-18T05:29:10.601Z,5.50
2023-05-18T05:31:38.801Z,5.60
2023-05-18T05:34:08.434Z,5.80
2023-05-18T05:36:36.652Z,5.90
2023-05-18T05:39:04.924Z,6.10
2023-05-18T05:41:33.769Z,6.20
2023-05-18T05:44:02.532Z,6.40
2023-05-18T05:46:30.745Z,6.50
2023-05-18T05:49:02.008Z,6.70
2023-05-18T05:51:31.682Z,6.80
2023-05-18T05:54:00.488Z,7.00
2023-05-18T05:56:28.737Z,7.10
2023-05-18T05:58:57.666Z,7.30
2023-05-18T06:01:26.171Z,7.40
2023-05-18T06:03:54.498Z,7.60
2023-05-18T06:06:22.822Z,7.70
2023-05-18T06:08:52.364Z,7.80
2023-05-18T06:11:21.092Z,8.00
2023-05-18T06:13:49.284Z,8.10
2023-05-18T06:16:17.529Z,8.30
2023-05-18T06:18:45.919Z,8.50
2023-05-18T06:21:14.801Z,8.60
2023-05-18T06:23:44.394Z,8.80
2023-05-18T06:26:32.353Z,9.00
2023-05-18T06:29:15.905Z,9.20
2023-05-18T06:32:02.060Z,9.40
2023-05-18T06:34:37.777Z,9.50
2023-05-18T06:37:06.984Z,9.70
2023-05-18T06:39:35.162Z,9.90
2023-05-18T06:42:05.236Z,10.00
2023-05-18T06:44:35.849Z,10.20
2023-05-18T06:47:11.044Z,10.40
2023-05-18T06:49:39.914Z,10.60
2023-05-18T06:52:09.880Z,10.80
2023-05-18T06:54:39.102Z,11.00
2023-05-18T06:57:09.141Z,11.20
2023-05-18T06:59:37.342Z,11.40
2023-05-18T07:02:06.567Z,11.50
2023-05-18T07:04:35.116Z,11.70
2023-05-18T07:07:03.424Z,11.80
2023-05-18T07:09:31.730Z,12.00
2023-05-18T07:11:59.937Z,12.10
2023-05-18T07:14:29.459Z,12.30
2023-05-18T07:16:57.567Z,12.40
2023-05-18T07:19:25.879Z,12.60
2023-05-18T07:21:54.213Z,12.70
2023-05-18T07:24:22.374Z,12.80
2023-05-18T07:26:50.578Z,13.00
2023-05-18T07:29:18.838Z,13.10
2023-05-18T07:31:48.826Z,13.30
2023-05-18T07:34:18.092Z,13.40
2023-05-18T07:36:46.243Z,13.50
2023-05-18T07:39:19.701Z,13.70
2023-05-18T07:41:49.576Z,13.80
2023-05-18T07:44:17.705Z,13.90
2023-05-18T07:46:45.929Z,14.10
2023-05-18T07:49:15.613Z,14.20
2023-05-18T07:51:43.866Z,14.30
2023-05-18T07:54:12.826Z,14.40
2023-05-18T07:56:41.149Z,14.60
2023-05-18T07:59:10.963Z,14.70
2023-05-18T08:01:39.898Z,14.80
2023-05-18T08:04:08.237Z,14.90
2023-05-18T08:06:37.906Z,14.90
2023-05-18T08:09:06.996Z,15.00
2023-05-18T08:11:35.325Z,15.10
2023-05-18T08:14:03.663Z,15.20
2023-05-18T08:16:34.637Z,15.30
2023-05-18T08:19:02.982Z,15.40
2023-05-18T08:21:31.172Z,15.50
2023-05-18T08:24:00.761Z,15.70
2023-05-18T08:26:29.051Z,15.90
2023-05-18T08:28:57.244Z,16.00
2023-05-18T08:31:25.501Z,16.10
2023-05-18T08:33:53.800Z,16.30
2023-05-18T08:36:21.949Z,16.40
2023-05-18T08:38:50.170Z,16.60
2023-05-18T08:41:28.049Z,16.80
2023-05-18T08:44:04.925Z,17.00
2023-05-18T08:46:36.862Z,17.30
2023-05-18T08:49:07.084Z,17.50
2023-05-18T08:51:38.427Z,17.80
2023-05-18T08:54:07.284Z,18.00
2023-05-18T08:56:39.714Z,18.30
2023-05-18T08:59:11.486Z,18.60
2023-05-18T09:01:39.871Z,18.90
2023-05-18T09:04:09.696Z,19.10
2023-05-18T09:06:38.615Z,19.30
2023-05-18T09:09:07.494Z,19.50
2023-05-18T09:11:37.297Z,19.70
2023-05-18T09:14:05.489Z,19.80
2023-05-18T09:16:34.373Z,19.80
2023-05-18T09:19:03.028Z,19.80
2023-05-18T09:21:33.225Z,20.00
2023-05-18T09:24:02.322Z,20.30
2023-05-18T09:26:30.876Z,20.60
2023-05-18T09:29:00.461Z,20.80
2023-05-18T09:31:31.588Z,20.90
2023-05-18T09:34:01.204Z,21.00
2023-05-18T09:36:32.422Z,21.00
2023-05-18T09:39:00.576Z,21.10
2023-05-18T09:41:29.299Z,21.20
2023-05-18T09:43:57.463Z,21.40
2023-05-18T09:46:32.970Z,21.40
2023-05-18T09:49:01.139Z,21.50
2023-05-18T09:51:31.574Z,21.80
2023-05-18T09:54:00.617Z,22.00
2023-05-18T09:56:29.950Z,22.20
2023-05-18T09:58:58.938Z,22.10
2023-05-18T10:01:28.520Z,22.10
2023-05-18T10:04:04.546Z,22.20
2023-05-18T10:06:34.107Z,22.00
2023-05-18T10:09:07.230Z,21.60
2023-05-18T10:11:36.708Z,21.30
2023-05-18T10:14:04.885Z,21.30
2023-05-18T10:16:34.978Z,21.10
2023-05-18T10:19:07.323Z,21.00
2023-05-18T10:21:39.072Z,20.90
2023-05-18T10:24:10.194Z,21.40
2023-05-18T10:26:43.283Z,21.90
2023-05-18T10:29:12.694Z,22.30
2023-05-18T10:31:44.101Z,22.70
2023-05-18T10:34:12.846Z,22.80
2023-05-18T10:36:42.729Z,23.10
2023-05-18T10:39:12.889Z,23.30
2023-05-18T10:41:43.494Z,23.30
2023-05-18T10:44:12.388Z,23.50
2023-05-18T10:46:42.925Z,23.60
2023-05-18T10:49:15.785Z,23.80
2023-05-18T10:51:47.270Z,23.90
2023-05-18T10:54:16.152Z,24.10
2023-05-18T10:56:49.930Z,24.10
2023-05-18T10:59:20.247Z,24.00
2023-05-18T11:01:53.267Z,23.80
2023-05-18T11:04:26.874Z,23.60
2023-05-18T11:06:59.046Z,23.40
2023-05-18T11:09:29.988Z,23.50
2023-05-18T11:11:59.515Z,23.30
2023-05-18T11:14:29.136Z,22.90
2023-05-18T11:17:21.268Z,22.60
2023-05-18T11:20:17.209Z,22.60
2023-05-18T11:22:52.257Z,22.90
2023-05-18T11:25:41.698Z,23.20
2023-05-18T11:28:13.430Z,23.30
2023-05-18T11:30:52.857Z,23.10
2023-05-18T11:33:29.927Z,23.20
2023-05-18T11:36:11.713Z,23.40
2023-05-18T11:39:04.465Z,23.60
2023-05-18T11:41:35.662Z,23.70
2023-05-18T11:44:18.873Z,23.70
2023-05-18T11:46:56.533Z,23.70
2023-05-18T11:49:31.161Z,23.70
2023-05-18T11:52:07.558Z,23.60
2023-05-18T11:54:45.177Z,23.50
2023-05-18T11:57:16.199Z,23.70
2023-05-18T11:59:46.754Z,23.90
2023-05-18T12:02:22.074Z,24.00
2023-05-18T12:04:54.884Z,24.20
2023-05-18T12:07:25.572Z,24.30
2023-05-18T12:09:53.789Z,24.10
2023-05-18T12:12:23.977Z,24.00
2023-05-18T12:14:56.859Z,24.10
2023-05-18T12:17:25.396Z,24.30
2023-05-18T12:19:55.034Z,24.50
2023-05-18T12:22:23.322Z,24.80
2023-05-18T12:24:53.713Z,25.10
2023-05-18T12:27:26.381Z,25.20
2023-05-18T12:29:55.386Z,25.10
2023-05-18T12:32:23.724Z,24.90
2023-05-18T12:34:53.982Z,24.80
2023-05-18T12:37:34.255Z,24.60
2023-05-18T12:40:08.374Z,24.70
2023-05-18T12:42:36.589Z,24.90
2023-05-18T12:45:06.774Z,25.20
2023-05-18T12:47:43.026Z,25.60
2023-05-18T12:50:13.034Z,26.00
2023-05-18T12:52:41.959Z,26.30
2023-05-18T12:55:11.240Z,26.70
2023-05-18T12:57:41.411Z,27.60
2023-05-18T13:00:13.834Z,28.60
2023-05-18T13:02:42.338Z,29.40
2023-05-18T13:05:13.729Z,30.00
2023-05-18T13:07:44.895Z,30.40
2023-05-18T13:10:18.458Z,30.40
2023-05-18T13:12:49.354Z,30.50
2023-05-18T13:15:19.697Z,30.80
2023-05-18T13:17:59.029Z,31.00
2023-05-18T13:20:40.420Z,31.30
2023-05-18T13:23:12.872Z,31.50
2023-05-18T13:25:41.698Z,31.90
2023-05-18T13:28:12.177Z,32.40
2023-05-18T13:30:42.363Z,32.50
2023-05-18T13:33:12.082Z,32.70
2023-05-18T13:35:43.546Z,33.10
2023-05-18T13:38:13.784Z,33.10
2023-05-18T13:40:43.281Z,33.20
2023-05-18T13:43:13.752Z,33.30
2023-05-18T13:45:43.335Z,33.40
2023-05-18T13:48:11.958Z,33.30
2023-05-18T13:50:42.045Z,33.20
2023-05-18T13:53:10.310Z,33.20
2023-05-18T13:55:38.600Z,33.20
2023-05-18T13:58:07.015Z,33.40
2023-05-18T14:00:36.353Z,33.70
2023-05-18T14:03:05.261Z,33.80
2023-05-18T14:05:33.631Z,33.90
2023-05-18T14:08:03.523Z,34.30
2023-05-18T14:10:32.110Z,34.70
2023-05-18T14:13:00.577Z,35.30
2023-05-18T14:15:28.748Z,35.40
2023-05-18T14:17:56.978Z,35.40
2023-05-18T14:20:25.299Z,35.00
2023-05-18T14:22:53.778Z,34.10
2023-05-18T14:25:23.460Z,34.10
2023-05-18T14:27:51.663Z,34.30
2023-05-18T14:30:19.933Z,34.60
2023-05-18T14:32:48.182Z,34.50
2023-05-18T14:35:16.705Z,34.40
2023-05-18T14:37:44.919Z,33.50
2023-05-18T14:40:13.837Z,33.20
2023-05-18T14:42:43.415Z,33.50
2023-05-18T14:45:12.198Z,33.90
2023-05-18T14:47:40.620Z,34.40
2023-05-18T14:50:09.843Z,34.90
2023-05-18T14:52:38.086Z,35.00
2023-05-18T14:55:07.380Z,35.00
2023-05-18T14:57:35.583Z,35.40
2023-05-18T15:00:06.113Z,35.90
2023-05-18T15:02:34.562Z,36.10
2023-05-18T15:05:02.895Z,36.20
2023-05-18T15:07:31.151Z,36.20
2023-05-18T15:09:59.302Z,36.20
2023-05-18T15:12:27.541Z,36.20
2023-05-18T15:14:56.299Z,36.30
2023-05-18T15:17:26.099Z,36.20
2023-05-18T15:19:54.296Z,36.40
2023-05-18T15:22:23.065Z,36.80
2023-05-18T15:24:51.308Z,36.90
2023-05-18T15:27:19.560Z,36.60
2023-05-18T15:29:48.455Z,36.40
2023-05-18T15:32:16.818Z,36.30
2023-05-18T15:34:46.433Z,36.50
2023-05-18T15:37:14.758Z,36.80
2023-05-18T15:39:43.160Z,37.10
2023-05-18T15:42:11.555Z,37.40
2023-05-18T15:44:39.784Z,37.70
2023-05-18T15:47:08.389Z,37.90
2023-05-18T15:49:36.672Z,37.80
2023-05-18T15:52:07.232Z,37.70
2023-05-18T15:54:35.642Z,37.60
2023-05-18T15:57:04.502Z,37.70
2023-05-18T15:59:32.774Z,37.80
2023-05-18T16:02:01.286Z,37.80
2023-05-18T16:04:29.562Z,37.70
2023-05-18T16:06:58.091Z,37.50
2023-05-18T16:09:27.770Z,37.30
2023-05-18T16:11:56.040Z,36.90
2023-05-18T16:14:24.344Z,36.80
2023-05-18T16:16:52.736Z,36.70
2023-05-18T16:19:21.176Z,36.40
2023-05-18T16:21:49.654Z,36.30
2023-05-18T16:24:18.027Z,36.10
2023-05-18T16:26:47.754Z,36.00
2023-05-18T16:29:16.002Z,36.00
2023-05-18T16:31:44.565Z,36.20
2023-05-18T16:34:12.891Z,36.20
2023-05-18T16:36:41.125Z,36.40
2023-05-18T16:39:09.373Z,36.50
2023-05-18T16:41:37.613Z,36.60
2023-05-18T16:44:07.451Z,36.50
2023-05-18T16:46:35.875Z,36.20
2023-05-18T16:49:04.965Z,35.30
2023-05-18T16:51:33.297Z,33.50
2023-05-18T16:54:01.746Z,31.80
2023-05-18T16:56:30.071Z,30.80
2023-05-18T16:58:58.267Z,30.30
2023-05-18T17:01:30.708Z,29.60
2023-05-18T17:03:59.216Z,28.90
2023-05-18T17:06:27.884Z,28.40
2023-05-18T17:08:58.549Z,27.80
2023-05-18T17:11:28.304Z,27.10
2023-05-18T17:13:57.756Z,26.30
2023-05-18T17:16:30.586Z,25.70
2023-05-18T17:18:59.140Z,25.20
2023-05-18T17:21:28.331Z,24.70
2023-05-18T17:23:57.345Z,24.30
2023-05-18T17:26:30.464Z,23.80
2023-05-18T17:28:58.821Z,23.40
2023-05-18T17:31:28.469Z,23.00
2023-05-18T17:33:56.913Z,22.50
2023-05-18T17:36:25.589Z,22.20
2023-05-18T17:38:53.882Z,21.90
2023-05-18T17:41:22.462Z,21.60
2023-05-18T17:43:50.778Z,21.30
2023-05-18T17:46:19.482Z,20.90
2023-05-18T17:48:49.132Z,20.60
2023-05-18T17:51:17.337Z,20.40
2023-05-18T17:53:45.626Z,20.10
2023-05-18T17:56:13.989Z,19.90
2023-05-18T17:58:42.195Z,19.70
2023-05-18T18:01:12.139Z,19.50
2023-05-18T18:03:41.664Z,19.30
2023-05-18T18:06:11.529Z,19.10
2023-05-18T18:08:39.826Z,19.00
2023-05-18T18:11:09.494Z,18.80
2023-05-18T18:13:38.147Z,18.70
2023-05-18T18:16:07.681Z,18.50
2023-05-18T18:18:37.226Z,18.40
2023-05-18T18:21:06.807Z,18.20
2023-05-18T18:23:38.243Z,18.10
2023-05-18T18:26:07.850Z,17.90
2023-05-18T18:28:37.169Z,17.80
2023-05-18T18:31:06.615Z,17.70
2023-05-18T18:33:35.169Z,17.50
2023-05-18T18:36:07.366Z,17.40
2023-05-18T18:38:37.118Z,17.30
2023-05-18T18:41:05.365Z,17.20
2023-05-18T18:43:35.210Z,17.10
2023-05-18T18:46:03.802Z,17.00
2023-05-18T18:48:32.160Z,16.90
2023-05-18T18:51:00.543Z,16.80
2023-05-18T18:53:29.011Z,16.70
2023-05-18T18:55:59.647Z,16.60
2023-05-18T18:58:28.199Z,16.50
2023-05-18T19:00:56.382Z,16.40
2023-05-18T19:03:26.048Z,16.30
2023-05-18T19:05:54.424Z,16.20
2023-05-18T19:08:22.697Z,16.10
2023-05-18T19:10:51.029Z,16.00
2023-05-18T19:13:21.025Z,15.90
2023-05-18T19:15:50.249Z,15.90
2023-05-18T19:18:18.615Z,15.80
2023-05-18T19:20:46.938Z,15.80
2023-05-18T19:23:16.167Z,15.70
2023-05-18T19:25:44.730Z,15.70
2023-05-18T19:28:13.145Z,15.70
2023-05-18T19:30:42.833Z,15.60
2023-05-18T19:33:11.266Z,15.60
2023-05-18T19:35:39.607Z,15.50
2023-05-18T19:38:07.925Z,15.50
2023-05-18T19:40:36.202Z,15.40
2023-05-18T19:43:04.614Z,15.40
2023-05-18T19:45:33.619Z,15.30
2023-05-18T19:48:03.676Z,15.30
2023-05-18T19:50:31.964Z,15.30
2023-05-18T19:53:00.254Z,15.20
2023-05-18T19:55:28.572Z,15.20
2023-05-18T19:57:56.966Z,15.20
2023-05-18T20:00:26.371Z,15.20
2023-05-18T20:02:54.694Z,15.20
2023-05-18T20:05:25.519Z,15.10
2023-05-18T20:07:53.950Z,15.10
2023-05-18T20:10:22.402Z,15.10
2023-05-18T20:12:50.694Z,15.10
2023-05-18T20:15:19.109Z,15.10
2023-05-18T20:17:47.491Z,15.00
2023-05-18T20:20:17.279Z,15.00
2023-05-18T20:22:47.117Z,15.00
2023-05-18T20:25:15.703Z,15.00
2023-05-18T20:27:44.098Z,14.90
2023-05-18T20:30:12.927Z,14.90
2023-05-18T20:32:41.301Z,14.90
2023-05-18T20:35:09.814Z,14.90
2023-05-18T20:37:41.402Z,14.80
2023-05-18T20:40:13.439Z,14.80
2023-05-18T20:42:42.534Z,14.80
2023-05-18T20:45:12.375Z,14.80
2023-05-18T20:47:41.899Z,14.80
2023-05-18T20:50:11.132Z,14.70
2023-05-18T20:52:39.464Z,14.70
2023-05-18T20:55:10.361Z,14.70
2023-05-18T20:57:42.205Z,14.70
2023-05-18T21:00:12.691Z,14.70
2023-05-18T21:02:42.463Z,14.60
2023-05-18T21:05:10.987Z,14.60
2023-05-18T21:07:40.054Z,14.50
2023-05-18T21:10:12.336Z,14.50
2023-05-18T21:12:40.732Z,14.40
2023-05-18T21:15:10.272Z,14.40
2023-05-18T21:17:38.524Z,14.40
2023-05-18T21:20:09.906Z,14.40
2023-05-18T21:22:38.156Z,14.40
2023-05-18T21:25:07.780Z,14.30
2023-05-18T21:27:38.259Z,14.30
2023-05-18T21:30:08.325Z,14.30
2023-05-18T21:32:36.688Z,14.30
2023-05-18T21:35:06.436Z,14.20
2023-05-18T21:37:34.644Z,14.20
2023-05-18T21:40:03.383Z,14.20
2023-05-18T21:42:32.688Z,14.20
2023-05-18T21:45:04.667Z,14.10
2023-05-18T21:47:32.977Z,14.10
2023-05-18T21:50:01.286Z,14.10
2023-05-18T21:52:29.688Z,14.10
2023-05-18T21:54:57.967Z,14.00
2023-05-18T21:57:26.424Z,14.00
2023-05-18T21:59:54.615Z,14.00
2023-05-18T22:02:24.192Z,14.00
2023-05-18T22:04:52.470Z,13.90
2023-05-18T22:07:20.916Z,13.90
2023-05-18T22:09:51.450Z,13.90
2023-05-18T22:12:19.875Z,13.90
2023-05-18T22:14:48.114Z,13.90
2023-05-18T22:17:16.592Z,13.80
2023-05-18T22:19:46.567Z,13.80
2023-05-18T22:22:26.605Z,13.80
2023-05-18T22:24:58.202Z,13.80
2023-05-18T22:27:26.486Z,13.70
2023-05-18T22:29:54.705Z,13.70
2023-05-18T22:32:23.103Z,13.70
2023-05-18T22:34:53.586Z,13.70
2023-05-18T22:37:21.812Z,13.70
2023-05-18T22:39:50.027Z,13.70
2023-05-18T22:42:18.588Z,13.70
2023-05-18T22:44:46.807Z,13.60
2023-05-18T22:47:19.488Z,13.70
2023-05-18T22:49:49.284Z,13.60
2023-05-18T22:52:19.659Z,13.60
2023-05-18T22:54:48.309Z,13.60
2023-05-18T22:57:16.634Z,13.60
2023-05-18T22:59:45.001Z,13.60
2023-05-18T23:02:13.352Z,13.60
2023-05-18T23:04:41.744Z,13.60
2023-05-18T23:07:10.100Z,13.60
2023-05-18T23:09:39.813Z,13.60
2023-05-18T23:12:11.150Z,13.60
2023-05-18T23:14:39.469Z,13.60
2023-05-18T23:17:08.356Z,13.60
2023-05-18T23:19:36.617Z,13.50
2023-05-18T23:22:05.604Z,13.50
2023-05-18T23:24:34.195Z,13.50
2023-05-18T23:27:03.805Z,13.50
2023-05-18T23:29:32.140Z,13.50
2023-05-18T23:32:00.391Z,13.50
2023-05-18T23:34:29.605Z,13.40
2023-05-18T23:37:03.844Z,13.40
2023-05-18T23:39:33.342Z,13.40
2023-05-18T23:42:04.368Z,13.40
2023-05-18T23:44:33.337Z,13.40
2023-05-18T23:47:02.772Z,13.40
2023-05-18T23:49:31.690Z,13.40
2023-05-18T23:52:03.320Z,13.40
2023-05-18T23:54:32.621Z,13.30
2023-05-18T23:57:03.192Z,13.30
2023-05-18T23:59:33.290Z,13.30
